Latest Coastal Weather Observations for Darwin Harbour

IDD60701

Issued at 12:51 pm CST Saturday 18 April 2015 (issued every 10 minutes, with the page automatically refreshed every 10 minutes)

About coastal observations | Map of coastal stations | Coastal observations for NT | Marine services | Other Formats
Station Details ID: 014072 Name: DARWIN NTC AWS Lat: -12.47 Lon: 130.85 Height: 0.0 m
Data from the previous 72 hours. | See also: Recent months for locations in Northern Territory
Date/Time
CST
Temp

°C
Wind Pressure Rain
since 9am
mm
Weather Cloud Vis
km
Sea
Height
m
Swell
Dir
 
Speed
knots
Gust
knots
hPa Trend Height
m
Period
s
Dir
18/12:30pm 30.9 ESE 6 9 1010.2 - - - - - - - - -
18/12:00pm 30.7 ESE 7 9 1010.8 - - - - - - - - -
18/11:30am 29.8 SE 7 9 1011.4 - - - - - - - - -
18/11:00am 29.4 SE 7 10 1011.7 - - - - - - - - -
18/10:30am 29.2 SE 6 8 1012.0 - - - - - - - - -
18/10:00am 29.0 ESE 7 9 1012.3 - - - - - - - - -
18/09:30am 28.3 ESE 9 11 1011.9 - - - - - - - - -
18/09:00am 28.2 E 12 15 1011.5 - - - - - - - - -
18/08:30am 27.9 ESE 10 12 1011.4 - - - - - - - - -
18/08:00am 28.2 ESE 8 9 1011.3 - - - - - - - - -
18/07:30am 28.1 ESE 7 8 1010.9 - - - - - - - - -
18/07:00am 27.9 ESE 8 9 1010.6 - - - - - - - - -
18/06:30am 28.2 ESE 6 7 1010.2 - - - - - - - - -
18/06:00am 28.3 ESE 4 5 1009.8 - - - - - - - - -
18/05:30am 28.2 E 1 3 1009.6 - - - - - - - - -
18/05:00am 28.4 SSE 2 4 1009.7 - - - - - - - - -
18/04:30am 28.4 NE 1 3 1009.7 - - - - - - - - -
18/04:00am 28.4 SSW 3 4 1009.8 - - - - - - - - -
18/03:30am 28.5 SSW 2 3 1009.6 - - - - - - - - -
18/03:00am 29.1 CALM 0 1 1009.8 - - - - - - - - -
18/02:30am 29.0 NNE 1 3 1009.7 - - - - - - - - -
18/02:00am 28.9 N 2 5 1009.9 - - - - - - - - -
18/01:30am 29.4 N 2 4 1010.2 - - - - - - - - -
18/01:00am 29.5 N 2 4 1010.8 - - - - - - - - -
18/12:30am 29.4 NNW 3 6 1010.9 - - - - - - - - -
18/12:00am 29.3 N 2 5 1011.0 - - - - - - - - -
 
Date/Time
CST
Temp

°C
Wind Pressure Rain
since 9am
mm
Weather Cloud Vis
km
Sea
Height
m
Swell
Dir
 
Speed
knots
Gust
knots
hPa Trend Height
m
Period
s
Dir
17/11:30pm 29.2 NE 2 6 1011.0 - - - - - - - - -
17/11:00pm 29.3 NE 2 4 1011.0 - - - - - - - - -
17/10:30pm 29.3 NNE 2 5 1010.9 - - - - - - - - -
17/10:00pm 29.3 NE 5 8 1010.7 - - - - - - - - -
17/09:30pm 29.3 ENE 3 7 1010.5 - - - - - - - - -
17/09:00pm 29.8 ENE 4 9 1010.3 - - - - - - - - -
17/08:30pm 29.8 ENE 6 11 1009.9 - - - - - - - - -
17/08:00pm 30.0 ENE 5 12 1009.6 - - - - - - - - -
17/07:30pm 29.8 ENE 6 13 1009.2 - - - - - - - - -
17/07:00pm 30.0 NE 9 15 1008.8 - - - - - - - - -
17/06:30pm 30.2 NE 9 17 1008.5 - - - - - - - - -
17/06:00pm 30.6 NE 8 17 1008.2 - - - - - - - - -
17/05:30pm 31.2 NNE 10 17 1008.0 - - - - - - - - -
17/05:00pm 32.0 ENE 6 13 1007.8 - - - - - - - - -
17/04:30pm 32.8 E 5 7 1007.7 - - - - - - - - -
17/04:00pm 32.2 ESE 7 10 1007.7 - - - - - - - - -
17/03:30pm 32.3 SE 5 9 1007.9 - - - - - - - - -
17/03:00pm 32.2 E 5 8 1008.1 - - - - - - - - -
17/02:30pm 32.0 E 4 6 1008.6 - - - - - - - - -
17/02:00pm 32.7 E 4 7 1009.1 - - - - - - - - -
17/01:30pm 32.3 ENE 6 13 1009.5 - - - - - - - - -
17/01:00pm 32.3 ENE 7 12 1010.0 - - - - - - - - -
17/12:30pm 31.4 E 12 15 1010.5 - - - - - - - - -
17/12:00pm 31.2 E 10 15 1011.1 - - - - - - - - -
17/11:30am 30.8 E 10 14 1011.5 - - - - - - - - -
17/11:00am 30.5 E 11 14 1012.0 - - - - - - - - -
17/10:30am 29.0 ESE 7 10 1012.3 - - - - - - - - -
17/10:00am 28.3 ESE 7 10 1012.8 - - - - - - - - -
17/09:30am 28.1 SE 7 9 1012.9 - - - - - - - - -
17/09:00am 27.7 ESE 7 10 1012.7 - - - - - - - - -
17/08:30am 27.9 E 7 9 1012.4 - - - - - - - - -
17/08:00am 27.7 E 7 8 1012.2 - - - - - - - - -
17/07:30am 27.9 E 5 7 1011.8 - - - - - - - - -
17/07:00am 27.6 E 4 6 1011.6 - - - - - - - - -
17/06:30am 27.6 E 5 7 1011.1 - - - - - - - - -
17/06:00am 27.7 E 5 8 1010.8 - - - - - - - - -
17/05:30am 27.4 E 5 8 1010.6 - - - - - - - - -
17/05:00am 27.1 E 4 8 1010.6 - - - - - - - - -
17/04:30am 27.3 ENE 8 13 1010.7 - - - - - - - - -
17/04:00am 27.6 ENE 6 10 1010.7 - - - - - - - - -
17/03:30am 27.9 NE 6 12 1010.5 - - - - - - - - -
17/03:00am 27.8 ENE 7 12 1010.8 - - - - - - - - -
17/02:30am 27.8 ENE 5 7 1011.2 - - - - - - - - -
17/02:00am 28.0 ENE 6 9 1011.5 - - - - - - - - -
17/01:30am 27.8 E 6 9 1011.9 - - - - - - - - -
17/01:00am 27.9 ENE 5 9 1012.3 - - - - - - - - -
17/12:30am 27.9 ENE 7 11 1012.7 - - - - - - - - -
17/12:00am 28.1 ENE 8 12 1012.7 - - - - - - - - -
 
Date/Time
CST
Temp

°C
Wind Pressure Rain
since 9am
mm
Weather Cloud Vis
km
Sea
Height
m
Swell
Dir
 
Speed
knots
Gust
knots
hPa Trend Height
m
Period
s
Dir
16/11:30pm 28.2 ENE 7 11 1012.9 - - - - - - - - -
16/11:00pm 28.3 ENE 8 12 1013.1 - - - - - - - - -
16/10:30pm 28.5 ENE 8 13 1013.2 - - - - - - - - -
16/10:00pm 28.5 NE 5 10 1013.1 - - - - - - - - -
16/09:30pm 28.8 ENE 8 11 1012.9 - - - - - - - - -
16/09:00pm 28.9 ENE 7 12 1012.8 - - - - - - - - -
16/08:30pm 29.4 ENE 6 11 1012.6 - - - - - - - - -
16/08:00pm 30.1 ENE 5 11 1011.9 - - - - - - - - -
16/07:30pm 29.5 E 9 12 1011.3 - - - - - - - - -
16/07:00pm 30.4 ENE 5 11 1010.9 - - - - - - - - -
16/06:30pm 30.8 ENE 5 11 1010.5 - - - - - - - - -
16/06:00pm 31.6 NE 7 12 1010.1 - - - - - - - - -
16/05:30pm 32.1 ENE 6 10 1009.9 - - - - - - - - -
16/05:00pm 32.2 E 9 12 1009.7 - - - - - - - - -
16/04:30pm 32.3 E 9 15 1009.8 - - - - - - - - -
16/04:00pm 32.2 E 10 15 1009.9 - - - - - - - - -
16/03:30pm 32.2 E 9 13 1009.9 - - - - - - - - -
16/03:00pm 32.6 E 10 15 1010.2 - - - - - - - - -
16/02:30pm 32.5 E 9 18 1010.6 - - - - - - - - -
16/02:00pm 31.8 ENE 12 19 1010.9 - - - - - - - - -
16/01:30pm 31.8 ENE 9 15 1011.3 - - - - - - - - -
16/01:00pm 31.5 ENE 11 18 1011.8 - - - - - - - - -
16/12:30pm 30.8 E 11 15 1012.4 - - - - - - - - -
16/12:00pm 30.4 E 12 16 1012.9 - - - - - - - - -
16/11:30am 30.3 ENE 13 21 1013.7 - - - - - - - - -
16/11:00am 30.0 E 14 19 1014.2 - - - - - - - - -
16/10:30am 29.4 E 15 21 1014.6 - - - - - - - - -
16/10:00am 28.7 ESE 13 17 1014.6 - - - - - - - - -
16/09:30am 28.3 ESE 12 14 1014.6 - - - - - - - - -
16/09:00am 27.6 E 11 13 1014.2 - - - - - - - - -
16/08:30am 27.6 E 9 13 1014.0 - - - - - - - - -
16/08:00am 27.3 E 10 13 1013.8 - - - - - - - - -
16/07:30am 26.8 E 10 13 1013.3 - - - - - - - - -
16/07:00am 26.6 E 10 13 1012.8 - - - - - - - - -
16/06:30am 27.1 E 10 14 1012.2 - - - - - - - - -
16/06:00am 27.1 E 11 16 1012.0 - - - - - - - - -
16/05:30am 27.5 ENE 10 15 1011.9 - - - - - - - - -
16/05:00am 27.7 E 13 16 1011.9 - - - - - - - - -
16/04:30am 28.0 E 13 17 1011.7 - - - - - - - - -
16/04:00am 28.0 ENE 11 16 1011.7 - - - - - - - - -
16/03:30am 27.8 ENE 8 11 1011.8 - - - - - - - - -
16/03:00am 27.9 ENE 7 10 1011.8 - - - - - - - - -
16/02:30am 28.2 ENE 5 8 1012.0 - - - - - - - - -
16/02:00am 28.3 ENE 6 9 1012.3 - - - - - - - - -
16/01:30am 28.4 ENE 6 10 1012.4 - - - - - - - - -
16/01:00am 28.6 ENE 6 10 1012.8 - - - - - - - - -
16/12:30am 28.7 ENE 6 9 1013.1 - - - - - - - - -
16/12:00am 28.6 ENE 6 10 1013.3 - - - - - - - - -
 
Date/Time
CST
Temp

°C
Wind Pressure Rain
since 9am
mm
Weather Cloud Vis
km
Sea
Height
m
Swell
Dir
 
Speed
knots
Gust
knots
hPa Trend Height
m
Period
s
Dir
15/11:30pm 29.0 ENE 5 11 1013.3 - - - - - - - - -
15/11:00pm 29.2 NE 4 10 1013.4 - - - - - - - - -
15/10:30pm 29.2 ENE 5 9 1013.3 - - - - - - - - -
15/10:00pm 29.3 ENE 4 8 1013.1 - - - - - - - - -
15/09:30pm 29.4 ENE 4 7 1012.8 - - - - - - - - -
15/09:00pm 29.7 ENE 3 8 1012.5 - - - - - - - - -
15/08:30pm 29.9 ENE 5 9 1012.2 - - - - - - - - -
15/08:00pm 29.9 ENE 5 9 1011.8 - - - - - - - - -
15/07:30pm 30.3 ENE 4 9 1011.4 - - - - - - - - -
15/07:00pm 30.8 ENE 4 9 1011.0 - - - - - - - - -
15/06:30pm 31.3 ENE 5 9 1010.5 - - - - - - - - -
15/06:00pm 31.8 ENE 6 11 1010.2 - - - - - - - - -
15/05:30pm 31.9 ENE 8 13 1010.0 - - - - - - - - -
15/05:00pm 32.3 ENE 9 14 1009.8 - - - - - - - - -
15/04:30pm 32.0 ENE 8 15 1009.7 - - - - - - - - -
15/04:00pm 31.9 ENE 10 15 1009.7 - - - - - - - - -
15/03:30pm 31.6 ENE 7 15 1009.7 - - - - - - - - -
15/03:00pm 32.2 ENE 9 13 1010.0 - - - - - - - - -
15/02:30pm 32.4 E 8 13 1010.4 - - - - - - - - -
15/02:00pm 31.9 ENE 8 13 1010.9 - - - - - - - - -
15/01:30pm 31.6 ENE 8 13 1011.1 - - - - - - - - -
15/01:00pm 31.5 ENE 10 14 1011.4 - - - - - - - - -

Other Formats:

Comma delimited format used in spreadsheet applications
http://www.bom.gov.au/fwo/IDD60701/IDD60701.95122.axf

JavaScript Object Notation format (JSON) in row-major order
http://www.bom.gov.au/fwo/IDD60701/IDD60701.95122.json